Time;durP1;ratioP1;P1;durP2;ratioP2;P2;SDS_P1;SDS_P2;PMS_P1;PMS_P2;Temp;Humidity;BMP_temperature;BMP_pressure;BME280_temperature;BME280_humidity;BME280_pressure;Samples;Min_cycle;Max_cycle;Signal;HPM_P1;HPM_P2
2022/07/27 00:00:55;;;;;;;5.95;1.92;;;16.60;34.70;;;;;;5056298;28;20389;-77
2022/07/27 00:03:22;;;;;;;5.20;1.90;;;16.60;34.80;;;;;;5055937;28;20385;-75
2022/07/27 00:05:47;;;;;;;6.45;1.98;;;16.60;35.20;;;;;;5056222;28;20412;-74
2022/07/27 00:08:13;;;;;;;5.47;1.90;;;16.50;35.30;;;;;;5055860;28;20381;-76
2022/07/27 00:10:39;;;;;;;6.00;1.70;;;16.60;35.20;;;;;;5055202;28;20377;-74
2022/07/27 00:13:05;;;;;;;3.50;1.50;;;16.50;35.40;;;;;;5055360;28;20430;-76
2022/07/27 00:15:32;;;;;;;3.57;1.60;;;16.50;35.40;;;;;;5055491;28;20468;-76
2022/07/27 00:17:59;;;;;;;5.28;1.73;;;16.60;35.30;;;;;;5064187;28;20443;-78
2022/07/27 00:20:26;;;;;;;6.03;1.85;;;16.60;35.40;;;;;;5078542;28;20401;-75
2022/07/27 00:22:52;;;;;;;6.55;2.00;;;16.70;34.90;;;;;;5079335;28;20485;-74
2022/07/27 00:25:18;;;;;;;7.80;1.77;;;16.70;35.00;;;;;;5061969;28;20416;-76
2022/07/27 00:27:43;;;;;;;6.20;1.40;;;16.70;34.70;;;;;;5055632;28;20389;-76
2022/07/27 00:30:09;;;;;;;5.13;1.60;;;16.60;35.00;;;;;;5054354;28;20377;-76
2022/07/27 00:32:35;;;;;;;5.80;1.60;;;16.60;35.50;;;;;;5054007;28;20395;-76
2022/07/27 00:35:00;;;;;;;10.87;1.90;;;16.60;36.00;;;;;;5054053;28;20388;-76
2022/07/27 00:37:26;;;;;;;4.70;1.48;;;16.50;35.90;;;;;;5054169;28;20400;-74
2022/07/27 00:39:53;;;;;;;5.13;1.60;;;16.50;36.10;;;;;;5054178;28;20414;-76
2022/07/27 00:42:25;;;;;;;6.68;1.70;;;16.50;37.20;;;;;;5054306;28;20484;-76
2022/07/27 00:44:51;;;;;;;3.85;1.60;;;16.50;36.60;;;;;;5052670;28;20469;-75
2022/07/27 00:47:16;;;;;;;8.15;1.70;;;16.50;36.80;;;;;;5053960;28;20495;-75
2022/07/27 00:49:42;;;;;;;3.28;1.50;;;16.50;36.60;;;;;;5054548;28;20388;-74
2022/07/27 00:52:08;;;;;;;5.53;1.60;;;16.50;36.70;;;;;;5055826;28;20455;-75
2022/07/27 00:54:33;;;;;;;9.00;1.80;;;16.40;37.10;;;;;;5058633;28;20423;-75
2022/07/27 00:56:59;;;;;;;6.90;2.50;;;16.40;37.50;;;;;;5054874;28;20401;-75
2022/07/27 00:59:25;;;;;;;10.40;1.70;;;16.40;37.50;;;;;;5053710;28;20400;-75
2022/07/27 01:01:51;;;;;;;4.10;2.10;;;16.40;37.70;;;;;;5052339;28;20400;-76
2022/07/27 01:04:16;;;;;;;5.43;1.50;;;16.50;37.40;;;;;;5052664;28;20400;-74
2022/07/27 01:06:42;;;;;;;5.40;1.70;;;16.50;37.30;;;;;;5061553;28;20896;-75
2022/07/27 01:11:51;;;;;;;6.93;2.00;;;16.40;38.00;;;;;;5042009;28;20875;-74
2022/07/27 01:14:17;;;;;;;5.83;1.90;;;16.40;38.10;;;;;;5045618;28;20425;-74
2022/07/27 01:16:43;;;;;;;5.60;2.00;;;16.50;38.20;;;;;;5064297;28;20395;-74
2022/07/27 01:19:09;;;;;;;4.97;1.60;;;16.40;38.20;;;;;;5073727;28;20404;-75
2022/07/27 01:21:35;;;;;;;5.85;1.88;;;16.40;38.20;;;;;;5056810;28;20404;-76
2022/07/27 01:24:01;;;;;;;2.47;1.60;;;16.40;37.80;;;;;;5064869;28;20459;-75
2022/07/27 01:26:27;;;;;;;3.30;1.70;;;16.40;38.80;;;;;;5063326;28;20910;-75
2022/07/27 01:28:58;;;;;;;7.20;2.25;;;16.40;38.20;;;;;;5053822;28;20461;-73
2022/07/27 01:31:24;;;;;;;3.90;1.50;;;16.30;38.60;;;;;;5070984;28;20387;-75
2022/07/27 01:33:49;;;;;;;3.17;1.50;;;16.30;39.10;;;;;;5073261;28;20376;-75
2022/07/27 01:36:15;;;;;;;6.10;1.90;;;16.20;39.40;;;;;;5041888;28;20751;-74
2022/07/27 01:38:41;;;;;;;4.93;2.10;;;16.10;39.80;;;;;;5045857;28;20467;-74
2022/07/27 01:41:07;;;;;;;4.38;2.17;;;16.10;40.50;;;;;;5047721;28;20490;-75
2022/07/27 01:43:32;;;;;;;7.50;2.10;;;15.90;42.00;;;;;;5051303;28;20476;-76
2022/07/27 01:45:58;;;;;;;6.30;1.80;;;15.90;42.10;;;;;;5052763;28;20504;-74
2022/07/27 01:48:24;;;;;;;5.00;2.07;;;15.90;41.90;;;;;;5051657;28;20904;-75
2022/07/27 01:50:50;;;;;;;3.92;1.52;;;15.80;43.10;;;;;;5066850;28;20401;-72
2022/07/27 01:53:16;;;;;;;4.65;1.70;;;15.80;43.60;;;;;;5077397;22;20560;-73
2022/07/27 01:55:42;;;;;;;4.78;2.10;;;15.80;44.40;;;;;;5015044;28;20946;-75
2022/07/27 01:58:07;;;;;;;9.25;1.83;;;15.70;45.30;;;;;;5033546;28;20391;-74
2022/07/27 02:00:34;;;;;;;3.80;2.00;;;15.60;46.60;;;;;;5014917;28;20383;-75
2022/07/27 02:03:00;;;;;;;6.95;2.00;;;15.50;48.50;;;;;;5032287;28;20394;-75
2022/07/27 02:05:26;;;;;;;3.53;1.85;;;15.50;48.10;;;;;;5032350;28;20399;-73
2022/07/27 02:07:52;;;;;;;6.50;1.90;;;15.50;48.50;;;;;;5032567;28;20398;-74
2022/07/27 02:10:17;;;;;;;6.60;1.90;;;15.50;48.30;;;;;;5032377;28;20496;-75
2022/07/27 02:12:43;;;;;;;5.55;1.77;;;15.50;48.70;;;;;;5032064;28;20886;-75
2022/07/27 02:15:11;;;;;;;5.95;2.35;;;15.50;49.40;;;;;;5031084;28;20379;-75
2022/07/27 02:17:38;;;;;;;6.75;1.52;;;15.40;50.10;;;;;;5014270;28;20398;-74
2022/07/27 02:20:05;;;;;;;5.50;1.80;;;15.30;51.10;;;;;;5032081;28;20395;-73
2022/07/27 02:22:30;;;;;;;4.40;1.60;;;15.30;51.80;;;;;;5031724;28;20387;-74
2022/07/27 02:24:56;;;;;;;4.70;1.77;;;15.20;52.50;;;;;;5031982;28;20404;-73
2022/07/27 02:27:22;;;;;;;6.03;2.00;;;15.10;53.80;;;;;;5032475;28;20403;-74
2022/07/27 02:29:48;;;;;;;5.95;2.20;;;15.00;55.20;;;;;;5014881;28;20403;-74
2022/07/27 02:32:13;;;;;;;8.07;2.07;;;14.80;57.80;;;;;;5031946;28;20864;-73
2022/07/27 02:34:39;;;;;;;6.60;2.10;;;14.90;57.30;;;;;;5032132;28;20437;-73
2022/07/27 02:37:05;;;;;;;4.63;1.90;;;14.90;57.40;;;;;;5032425;28;20962;-75
2022/07/27 02:39:31;;;;;;;4.60;1.90;;;15.00;55.70;;;;;;5032701;28;20421;-73
2022/07/27 02:41:57;;;;;;;4.40;2.00;;;15.00;55.20;;;;;;5031730;28;20415;-75
2022/07/27 02:44:22;;;;;;;5.80;2.00;;;15.00;55.20;;;;;;5031597;28;20421;-73
2022/07/27 02:46:48;;;;;;;6.97;2.20;;;14.90;56.10;;;;;;5031618;28;20998;-73
2022/07/27 02:49:14;;;;;;;3.60;1.60;;;14.90;56.20;;;;;;5031604;28;20471;-75
2022/07/27 02:51:40;;;;;;;6.40;1.90;;;14.90;56.70;;;;;;5031506;28;20379;-74
2022/07/27 02:54:06;;;;;;;8.63;2.40;;;14.80;56.90;;;;;;5031153;28;20391;-75
2022/07/27 02:56:31;;;;;;;11.60;2.60;;;14.80;57.40;;;;;;5013754;28;20903;-74
2022/07/27 02:58:57;;;;;;;6.17;2.17;;;14.80;57.60;;;;;;5031566;28;20393;-74
2022/07/27 03:01:22;;;;;;;7.80;2.03;;;14.70;58.30;;;;;;5031340;28;20887;-75
2022/07/27 03:03:48;;;;;;;5.20;2.33;;;14.70;58.00;;;;;;5031431;28;20410;-74
2022/07/27 03:06:14;;;;;;;3.33;1.52;;;14.70;57.70;;;;;;5031367;28;20399;-74
2022/07/27 03:08:39;;;;;;;6.43;2.10;;;14.70;57.50;;;;;;5031352;28;20391;-73
2022/07/27 03:11:07;;;;;;;8.00;2.47;;;14.70;57.80;;;;;;5030963;28;20382;-75
2022/07/27 03:13:32;;;;;;;4.20;1.80;;;14.60;58.40;;;;;;5031151;28;20478;-74
2022/07/27 03:15:58;;;;;;;4.90;2.30;;;14.60;59.40;;;;;;5031792;28;20871;-77
2022/07/27 03:18:24;;;;;;;3.77;2.20;;;14.40;61.30;;;;;;5031364;28;20397;-74
2022/07/27 03:20:49;;;;;;;6.07;2.17;;;14.40;62.70;;;;;;5031358;28;20875;-73
2022/07/27 03:23:17;;;;;;;9.52;2.60;;;14.40;62.70;;;;;;5030969;28;20418;-74
2022/07/27 03:25:42;;;;;;;6.75;2.20;;;14.50;63.00;;;;;;5031038;28;20399;-76
2022/07/27 03:28:08;;;;;;;7.30;2.20;;;14.50;63.00;;;;;;5031935;28;21116;-74
2022/07/27 03:30:33;;;;;;;6.27;2.17;;;14.40;63.90;;;;;;5034111;28;20406;-75
2022/07/27 03:32:59;;;;;;;6.93;2.50;;;14.40;64.20;;;;;;5037703;28;20402;-76
2022/07/27 03:35:25;;;;;;;7.40;2.80;;;14.40;64.40;;;;;;5040775;28;20451;-75
2022/07/27 03:37:51;;;;;;;8.50;2.70;;;14.40;64.50;;;;;;5036652;28;20413;-74
2022/07/27 03:40:17;;;;;;;4.10;2.30;;;14.30;65.60;;;;;;5035322;28;20406;-76
2022/07/27 03:42:43;;;;;;;5.45;2.50;;;14.40;65.80;;;;;;5040265;28;20402;-75
2022/07/27 03:45:09;;;;;;;6.53;2.60;;;14.40;65.60;;;;;;5039406;28;20387;-76
2022/07/27 03:47:34;;;;;;;7.50;2.60;;;14.30;66.10;;;;;;5039894;28;20397;-75
2022/07/27 03:50:00;;;;;;;9.30;2.70;;;14.40;65.70;;;;;;5039398;28;20689;-73
2022/07/27 03:52:26;;;;;;;11.40;2.97;;;14.30;67.00;;;;;;5032526;28;20387;-74
2022/07/27 03:54:51;;;;;;;6.32;2.40;;;14.20;68.20;;;;;;5016725;28;20399;-74
2022/07/27 03:57:17;;;;;;;5.55;2.38;;;14.10;68.90;;;;;;5034566;28;20440;-76
2022/07/27 03:59:42;;;;;;;5.37;2.37;;;14.20;69.40;;;;;;5033140;28;20387;-74
2022/07/27 04:02:08;;;;;;;7.00;2.93;;;14.20;69.10;;;;;;5013956;28;20395;-75
2022/07/27 04:04:33;;;;;;;8.13;3.03;;;14.20;67.60;;;;;;5030885;28;20893;-74
2022/07/27 04:06:59;;;;;;;3.63;2.40;;;14.10;68.70;;;;;;5030748;28;20413;-74
2022/07/27 04:09:24;;;;;;;10.50;2.70;;;14.10;67.70;;;;;;5013405;28;20399;-75
2022/07/27 04:11:50;;;;;;;5.78;2.70;;;14.20;67.20;;;;;;5032022;28;20387;-75
2022/07/27 04:14:16;;;;;;;6.10;2.90;;;14.20;67.10;;;;;;5032633;28;20924;-75
2022/07/27 04:16:41;;;;;;;7.13;2.75;;;14.20;67.40;;;;;;5033823;28;20391;-76
2022/07/27 04:19:07;;;;;;;8.93;3.07;;;14.10;68.50;;;;;;5031702;28;20859;-73
2022/07/27 04:21:36;;;;;;;8.90;2.77;;;14.00;70.50;;;;;;5030298;28;20465;-73
2022/07/27 04:24:02;;;;;;;11.75;3.25;;;14.10;69.80;;;;;;5030960;28;20383;-73
2022/07/27 04:26:28;;;;;;;7.28;2.50;;;14.20;67.80;;;;;;5030359;28;20460;-75
2022/07/27 04:28:54;;;;;;;5.83;2.87;;;14.20;67.00;;;;;;5030412;28;20387;-73
2022/07/27 04:31:20;;;;;;;6.00;2.90;;;14.20;66.30;;;;;;5030716;28;20482;-75
2022/07/27 04:33:46;;;;;;;7.88;2.85;;;14.20;66.30;;;;;;5031770;28;20402;-74
2022/07/27 04:36:12;;;;;;;7.43;2.35;;;14.20;66.50;;;;;;5014357;28;20871;-74
2022/07/27 04:38:38;;;;;;;8.43;3.28;;;14.20;66.60;;;;;;5014826;28;20748;-74
2022/07/27 04:41:03;;;;;;;8.30;2.80;;;14.20;66.10;;;;;;5034395;28;20394;-74
2022/07/27 04:43:29;;;;;;;8.00;3.07;;;14.20;66.40;;;;;;5035283;28;20387;-75
2022/07/27 04:45:54;;;;;;;9.60;3.00;;;14.20;67.10;;;;;;5035189;28;20490;-74
2022/07/27 04:48:20;;;;;;;8.53;3.53;;;14.20;66.90;;;;;;5035234;28;20446;-75
2022/07/27 04:50:46;;;;;;;8.70;2.92;;;14.30;65.60;;;;;;5034387;28;20466;-74
2022/07/27 04:53:13;;;;;;;11.63;2.60;;;14.20;65.70;;;;;;5033977;28;20382;-75
2022/07/27 04:55:45;;;;;;;9.50;3.47;;;14.20;65.90;;;;;;5016737;28;20918;-75
2022/07/27 04:58:12;;;;;;;7.05;3.10;;;14.20;67.70;;;;;;5034141;28;20390;-74
2022/07/27 05:00:39;;;;;;;9.80;2.95;;;14.30;64.90;;;;;;5033999;28;20375;-75
2022/07/27 05:03:05;;;;;;;6.63;2.65;;;14.40;63.90;;;;;;5034174;28;20423;-74
2022/07/27 05:05:31;;;;;;;9.23;3.50;;;14.50;61.90;;;;;;5033445;28;20461;-74
2022/07/27 05:07:56;;;;;;;5.65;2.40;;;14.60;60.30;;;;;;5015775;28;20698;-75
2022/07/27 05:10:22;;;;;;;19.90;3.08;;;14.70;58.60;;;;;;5033612;28;20445;-74
2022/07/27 05:12:48;;;;;;;8.23;2.63;;;14.70;58.60;;;;;;5033303;28;20796;-74
2022/07/27 05:15:15;;;;;;;8.77;3.20;;;14.70;58.60;;;;;;5033080;28;20547;-72
2022/07/27 05:17:41;;;;;;;7.25;2.53;;;14.70;58.90;;;;;;5033044;28;20399;-74
2022/07/27 05:20:07;;;;;;;5.20;2.07;;;14.90;57.70;;;;;;5033213;28;20389;-74
2022/07/27 05:22:33;;;;;;;8.98;2.92;;;14.90;56.60;;;;;;5032999;28;20383;-75
2022/07/27 05:24:58;;;;;;;6.63;2.78;;;14.90;55.80;;;;;;5033530;28;20755;-73
2022/07/27 05:27:24;;;;;;;7.88;2.80;;;14.90;55.70;;;;;;5033339;28;20965;-76
2022/07/27 05:29:49;;;;;;;7.40;2.60;;;14.90;55.90;;;;;;5033083;28;20418;-75
2022/07/27 05:32:15;;;;;;;6.35;2.60;;;14.90;55.20;;;;;;5032969;28;20407;-75
2022/07/27 05:34:42;;;;;;;8.15;2.90;;;14.90;55.50;;;;;;5014947;28;20417;-74
2022/07/27 05:37:08;;;;;;;6.38;2.60;;;15.00;55.10;;;;;;5033005;28;20875;-75
2022/07/27 05:39:34;;;;;;;4.57;2.70;;;15.00;54.40;;;;;;5015102;28;20887;-74
2022/07/27 05:41:59;;;;;;;11.60;2.85;;;15.10;54.40;;;;;;5032893;28;20453;-75
2022/07/27 05:44:25;;;;;;;6.00;2.60;;;15.10;53.40;;;;;;5015017;28;20391;-74
2022/07/27 05:46:50;;;;;;;9.88;2.70;;;15.10;53.70;;;;;;5033282;28;20812;-74
2022/07/27 05:49:16;;;;;;;7.70;2.97;;;15.20;52.70;;;;;;5033379;28;20806;-75
2022/07/27 05:51:42;;;;;;;5.80;2.33;;;15.10;52.50;;;;;;5033336;28;20387;-75
2022/07/27 05:54:08;;;;;;;8.73;2.50;;;15.20;52.70;;;;;;5015424;28;20498;-75
2022/07/27 05:56:34;;;;;;;4.50;2.40;;;15.20;52.00;;;;;;5033691;28;20426;-74
2022/07/27 05:59:00;;;;;;;7.13;2.58;;;15.30;51.70;;;;;;5015630;28;20387;-74
2022/07/27 06:01:26;;;;;;;6.90;2.37;;;15.40;51.50;;;;;;5033379;28;20399;-74
2022/07/27 06:03:51;;;;;;;7.35;2.60;;;15.50;49.80;;;;;;5036161;28;20870;-75
2022/07/27 06:09:01;;;;;;;6.68;2.20;;;15.60;48.80;;;;;;5039570;28;20752;-74
2022/07/27 06:11:27;;;;;;;8.65;2.72;;;15.70;48.70;;;;;;5038600;28;20387;-75
2022/07/27 06:13:52;;;;;;;11.25;2.75;;;15.80;48.10;;;;;;5038995;28;20380;-76
2022/07/27 06:16:18;;;;;;;7.47;2.90;;;15.80;47.20;;;;;;5038564;28;20406;-74
2022/07/27 06:18:43;;;;;;;10.67;3.00;;;15.90;45.90;;;;;;5034647;28;20467;-75
2022/07/27 06:21:09;;;;;;;8.43;2.20;;;16.00;45.20;;;;;;5034382;28;20386;-74
2022/07/27 06:23:35;;;;;;;4.72;1.95;;;16.10;44.60;;;;;;5033529;28;20398;-75
2022/07/27 06:26:01;;;;;;;4.60;1.90;;;16.00;44.50;;;;;;5032638;28;20407;-73
2022/07/27 06:28:26;;;;;;;10.40;2.60;;;16.10;44.50;;;;;;5032098;28;20411;-74
2022/07/27 06:30:52;;;;;;;6.43;1.97;;;16.20;44.10;;;;;;5031937;28;20383;-74
2022/07/27 06:33:26;;;;;;;11.27;2.67;;;16.30;43.90;;;;;;5031586;28;20899;-74
2022/07/27 06:35:53;;;;;;;9.77;2.08;;;16.30;43.00;;;;;;5033020;28;20425;-75
2022/07/27 06:38:18;;;;;;;4.65;1.67;;;16.40;41.60;;;;;;5014426;28;20402;-75
2022/07/27 06:40:44;;;;;;;4.97;1.70;;;16.40;40.10;;;;;;5032698;28;20391;-75
2022/07/27 06:43:09;;;;;;;5.50;2.00;;;16.40;41.70;;;;;;5032377;28;20387;-75
2022/07/27 06:45:35;;;;;;;6.45;2.03;;;16.40;42.50;;;;;;5034146;28;20453;-77
2022/07/27 06:48:01;;;;;;;9.13;1.70;;;16.40;39.50;;;;;;5032886;28;20403;-76
2022/07/27 06:50:26;;;;;;;3.03;1.63;;;16.40;39.50;;;;;;5033414;28;20387;-76
2022/07/27 06:52:52;;;;;;;4.43;1.40;;;16.50;39.40;;;;;;5034004;28;20449;-74
2022/07/27 06:55:17;;;;;;;5.80;1.70;;;16.50;38.90;;;;;;5037029;28;20497;-76
2022/07/27 06:57:44;;;;;;;8.27;1.95;;;16.50;39.10;;;;;;5039214;28;20495;-75
2022/07/27 07:00:11;;;;;;;3.75;1.60;;;16.50;39.10;;;;;;5037133;28;20409;-75
2022/07/27 07:02:38;;;;;;;7.57;1.90;;;16.60;38.90;;;;;;5034816;28;20394;-75
2022/07/27 07:05:04;;;;;;;5.65;1.50;;;16.70;36.70;;;;;;5035485;28;20379;-75
2022/07/27 07:07:30;;;;;;;4.07;1.55;;;16.70;35.80;;;;;;5033919;28;20772;-76
2022/07/27 07:09:56;;;;;;;6.40;1.67;;;16.70;35.60;;;;;;5033460;28;20391;-76
2022/07/27 07:12:21;;;;;;;8.02;2.17;;;16.70;36.40;;;;;;5031959;28;20386;-74
2022/07/27 07:14:47;;;;;;;5.20;1.80;;;16.70;36.70;;;;;;5032281;28;20941;-73
2022/07/27 07:17:12;;;;;;;5.40;1.57;;;16.90;36.40;;;;;;5035156;28;20450;-75
2022/07/27 07:19:38;;;;;;;7.83;2.00;;;17.00;35.60;;;;;;5035857;28;20393;-75
2022/07/27 07:22:04;;;;;;;6.72;1.95;;;16.90;34.70;;;;;;5039334;28;20422;-76
2022/07/27 07:24:29;;;;;;;9.98;2.03;;;17.10;35.40;;;;;;5036645;28;20470;-74
2022/07/27 07:26:55;;;;;;;5.40;1.73;;;17.20;35.10;;;;;;5022405;28;20899;-75
2022/07/27 07:29:20;;;;;;;7.90;2.20;;;17.30;33.00;;;;;;5039055;28;20387;-75
2022/07/27 07:31:46;;;;;;;7.03;2.00;;;17.40;33.30;;;;;;5039538;28;20382;-75
2022/07/27 07:34:12;;;;;;;5.40;1.60;;;17.60;31.50;;;;;;5038333;28;20383;-74
2022/07/27 07:36:37;;;;;;;7.82;1.70;;;17.60;30.80;;;;;;5035561;28;20685;-74
2022/07/27 07:39:03;;;;;;;6.60;1.90;;;17.70;29.80;;;;;;5034829;28;20387;-76
2022/07/27 07:41:29;;;;;;;8.07;2.40;;;17.80;28.90;;;;;;5038444;28;20384;-75
2022/07/27 07:43:55;;;;;;;3.90;1.52;;;17.80;29.90;;;;;;5039486;28;20466;-76
2022/07/27 07:46:20;;;;;;;4.90;1.70;;;17.90;28.80;;;;;;5037159;28;20429;-74
2022/07/27 07:48:46;;;;;;;5.10;1.70;;;17.90;29.10;;;;;;5039853;28;20387;-74
2022/07/27 07:51:12;;;;;;;7.20;1.90;;;18.10;28.30;;;;;;5036803;28;20383;-74
2022/07/27 07:53:37;;;;;;;6.07;1.87;;;18.30;27.70;;;;;;5039155;28;20391;-75
2022/07/27 07:56:03;;;;;;;7.67;1.80;;;18.40;27.30;;;;;;5036494;28;20760;-76
2022/07/27 07:58:30;;;;;;;5.60;2.00;;;18.50;26.00;;;;;;5036157;28;20453;-76
2022/07/27 08:00:55;;;;;;;6.40;2.20;;;18.80;25.40;;;;;;5037827;28;20414;-74
2022/07/27 08:03:21;;;;;;;4.10;1.98;;;19.00;24.10;;;;;;5036476;28;20827;-75
2022/07/27 08:05:47;;;;;;;7.30;2.00;;;19.20;22.50;;;;;;5034804;28;20552;-77
2022/07/27 08:08:12;;;;;;;7.13;2.17;;;19.40;22.10;;;;;;5033894;28;20391;-77
2022/07/27 08:10:38;;;;;;;9.45;1.58;;;19.70;20.60;;;;;;5032897;28;20422;-76
2022/07/27 08:13:04;;;;;;;4.15;1.90;;;19.90;19.80;;;;;;5033680;28;20875;-76
2022/07/27 08:15:30;;;;;;;6.13;1.67;;;20.20;18.80;;;;;;5034966;28;20440;-77
2022/07/27 08:17:55;;;;;;;5.78;2.05;;;20.30;19.40;;;;;;5035616;28;20860;-75
2022/07/27 08:20:23;;;;;;;2.57;1.40;;;20.60;18.20;;;;;;5016616;28;20718;-76
2022/07/27 08:22:48;;;;;;;7.30;1.60;;;21.10;17.70;;;;;;5034401;28;20379;-76
2022/07/27 08:25:14;;;;;;;8.90;2.10;;;21.50;16.00;;;;;;5034782;28;20729;-76
2022/07/27 08:27:40;;;;;;;4.03;1.20;;;21.90;14.90;;;;;;5033969;28;20390;-76
2022/07/27 08:30:06;;;;;;;10.93;1.80;;;21.70;15.00;;;;;;5033864;28;20383;-76
2022/07/27 08:32:44;;;;;;;6.05;1.38;;;21.60;15.50;;;;;;5033976;28;20568;-76
2022/07/27 08:35:09;;;;;;;5.75;1.98;;;21.70;14.70;;;;;;5035433;28;20513;-77
2022/07/27 08:37:35;;;;;;;5.13;1.75;;;21.90;15.10;;;;;;5033890;28;20548;-77
2022/07/27 08:40:00;;;;;;;2.70;1.20;;;22.00;14.40;;;;;;5034263;28;20399;-76
2022/07/27 08:42:26;;;;;;;7.32;1.60;;;22.10;13.80;;;;;;5033898;28;20391;-76
2022/07/27 08:44:52;;;;;;;4.45;1.90;;;22.00;14.60;;;;;;5034158;28;20637;-76
2022/07/27 08:47:20;;;;;;;4.03;1.45;;;21.90;13.00;;;;;;5034152;28;20411;-74
2022/07/27 08:49:46;;;;;;;8.10;2.77;;;21.10;13.70;;;;;;5035361;28;20474;-77
2022/07/27 08:52:11;;;;;;;16.92;6.90;;;20.90;14.60;;;;;;5035093;28;20383;-76
2022/07/27 08:54:39;;;;;;;88.23;53.77;;;20.70;15.00;;;;;;5035698;28;20467;-76
2022/07/27 08:57:09;;;;;;;7.15;4.03;;;20.70;15.50;;;;;;5042908;28;20444;-75
2022/07/27 08:59:35;;;;;;;34.85;21.58;;;20.70;15.50;;;;;;5043166;28;20876;-76
2022/07/27 09:02:02;;;;;;;13.90;7.57;;;20.60;15.30;;;;;;5040247;28;20390;-75
2022/07/27 09:04:29;;;;;;;11.15;5.30;;;20.80;15.10;;;;;;5033718;28;20895;-75
2022/07/27 09:06:55;;;;;;;21.92;12.27;;;20.60;15.50;;;;;;5034564;28;20497;-75
2022/07/27 09:09:21;;;;;;;21.83;12.03;;;20.40;15.60;;;;;;5033800;28;20476;-74
2022/07/27 09:12:08;;;;;;;3.42;2.22;;;20.30;16.00;;;;;;5033375;28;20912;-76
2022/07/27 09:14:35;;;;;;;19.50;12.75;;;20.20;16.50;;;;;;5033609;28;20860;-76
2022/07/27 09:17:26;;;;;;;14.57;7.75;;;20.20;17.10;;;;;;5033714;28;20383;-75
2022/07/27 09:19:53;;;;;;;3.47;2.23;;;20.20;17.50;;;;;;5034021;28;20426;-76
2022/07/27 09:22:51;;;;;;;3.90;1.70;;;19.80;17.70;;;;;;5033648;28;20879;-76
2022/07/27 09:25:19;;;;;;;2.90;1.70;;;19.60;18.10;;;;;;5029212;28;20394;-77
2022/07/27 09:27:48;;;;;;;9.48;3.10;;;19.70;17.70;;;;;;5036848;28;20734;-75
2022/07/27 09:30:17;;;;;;;11.15;6.25;;;19.70;18.20;;;;;;5037491;28;20441;-76
2022/07/27 09:32:59;;;;;;;5.30;1.70;;;20.10;18.20;;;;;;5033598;28;20390;-77
2022/07/27 09:35:26;;;;;;;5.18;1.92;;;20.50;15.80;;;;;;5037713;28;20379;-76
2022/07/27 09:37:52;;;;;;;6.40;2.55;;;20.80;15.50;;;;;;5034514;28;20891;-76
2022/07/27 09:40:21;;;;;;;5.20;2.13;;;21.20;14.50;;;;;;5035296;28;20426;-75
2022/07/27 09:42:47;;;;;;;3.47;1.80;;;21.50;13.60;;;;;;5037982;28;20868;-76
2022/07/27 09:45:34;;;;;;;3.90;2.00;;;21.60;13.10;;;;;;5039719;28;20429;-76
2022/07/27 09:48:07;;;;;;;2.90;2.10;;;21.50;12.90;;;;;;5038862;28;20390;-76
2022/07/27 09:50:33;;;;;;;4.63;2.10;;;21.60;13.60;;;;;;5037422;28;20379;-75
2022/07/27 09:53:20;;;;;;;3.67;1.52;;;21.70;13.50;;;;;;5034142;28;20407;-76
2022/07/27 09:56:03;;;;;;;9.65;1.88;;;21.30;14.90;;;;;;5033786;28;20395;-76
2022/07/27 09:58:50;;;;;;;5.95;2.30;;;20.90;16.30;;;;;;5034549;28;20415;-76
2022/07/27 10:01:24;;;;;;;8.48;2.50;;;21.10;16.00;;;;;;5033635;28;20388;-76
2022/07/27 10:03:55;;;;;;;5.53;3.10;;;21.10;15.30;;;;;;5020843;28;20396;-75
2022/07/27 10:06:21;;;;;;;10.02;3.00;;;20.90;14.80;;;;;;5046960;28;20462;-74
2022/07/27 10:08:49;;;;;;;7.18;3.33;;;20.80;15.90;;;;;;5035222;28;20395;-76
2022/07/27 10:11:16;;;;;;;6.70;2.70;;;21.10;15.90;;;;;;5032377;28;20411;-76
2022/07/27 10:13:42;;;;;;;6.20;2.00;;;21.20;14.80;;;;;;5032644;28;20421;-75
2022/07/27 10:16:23;;;;;;;4.75;2.30;;;21.00;15.90;;;;;;5032723;28;20478;-76
2022/07/27 10:19:11;;;;;;;3.65;2.40;;;20.70;15.40;;;;;;5033083;28;20389;-76
2022/07/27 10:21:38;;;;;;;9.45;3.13;;;21.10;15.30;;;;;;5032747;28;20383;-76
2022/07/27 10:24:10;;;;;;;4.47;2.50;;;21.40;15.50;;;;;;5015248;28;20800;-77
2022/07/27 10:26:40;;;;;;;7.43;2.30;;;21.50;14.60;;;;;;5033863;28;20403;-76
2022/07/27 10:29:12;;;;;;;7.60;2.20;;;21.50;14.40;;;;;;5034524;28;20839;-77
2022/07/27 10:31:54;;;;;;;4.50;2.00;;;21.70;14.50;;;;;;5033775;28;20386;-76
2022/07/27 10:34:40;;;;;;;4.68;2.13;;;21.90;14.10;;;;;;5034332;28;20387;-77
2022/07/27 10:37:12;;;;;;;4.70;2.10;;;22.00;13.60;;;;;;5031987;28;20693;-76
2022/07/27 10:39:43;;;;;;;5.95;2.70;;;21.80;13.60;;;;;;5036831;28;20395;-76
2022/07/27 10:42:29;;;;;;;6.47;2.70;;;21.50;13.90;;;;;;5022202;28;20934;-76
2022/07/27 10:45:08;;;;;;;7.38;3.10;;;21.30;14.10;;;;;;5036810;28;20823;-76
2022/07/27 10:47:49;;;;;;;5.97;3.03;;;20.80;15.20;;;;;;5037647;28;20567;-77
2022/07/27 10:50:14;;;;;;;7.18;3.47;;;21.00;15.80;;;;;;5037916;28;20391;-77
2022/07/27 10:52:43;;;;;;;5.20;3.10;;;20.90;15.40;;;;;;5037986;28;20391;-77
2022/07/27 10:55:31;;;;;;;4.47;2.60;;;20.70;16.10;;;;;;5041058;28;20399;-77
2022/07/27 10:58:09;;;;;;;4.40;2.60;;;20.60;15.80;;;;;;5052748;28;20500;-75
2022/07/27 11:00:47;;;;;;;7.10;3.28;;;20.70;15.70;;;;;;5041057;28;20512;-76
2022/07/27 11:03:33;;;;;;;7.30;2.90;;;20.60;15.30;;;;;;5035775;28;20405;-75
2022/07/27 11:06:08;;;;;;;9.30;4.20;;;20.60;16.00;;;;;;5011298;28;20412;-76
2022/07/27 11:08:39;;;;;;;9.15;4.53;;;20.90;15.40;;;;;;5011793;28;20392;-75
2022/07/27 11:11:07;;;;;;;9.27;4.90;;;21.40;14.60;;;;;;5011245;28;20380;-76
2022/07/27 11:13:33;;;;;;;9.05;3.20;;;21.90;13.90;;;;;;5021023;28;20753;-75
2022/07/27 11:16:09;;;;;;;4.45;2.90;;;22.10;12.30;;;;;;5034587;28;20545;-76
2022/07/27 11:18:37;;;;;;;4.97;2.60;;;21.50;13.40;;;;;;5030018;28;20444;-76
2022/07/27 11:21:28;;;;;;;4.53;2.70;;;21.70;13.10;;;;;;5029598;28;20484;-75
2022/07/27 11:24:01;;;;;;;8.80;2.80;;;21.80;13.10;;;;;;5038008;28;20402;-76
2022/07/27 11:26:29;;;;;;;9.18;2.53;;;22.00;12.40;;;;;;5050301;28;20396;-76
2022/07/27 11:28:55;;;;;;;8.85;2.67;;;22.10;12.20;;;;;;5049735;28;20454;-76
2022/07/27 11:31:21;;;;;;;3.20;2.00;;;22.10;10.40;;;;;;5040838;28;20941;-76
2022/07/27 11:33:52;;;;;;;5.83;2.30;;;22.30;10.90;;;;;;5047988;28;20524;-75
2022/07/27 11:36:19;;;;;;;4.10;2.20;;;22.60;9.80;;;;;;5032934;28;20490;-77
2022/07/27 11:38:51;;;;;;;6.13;2.50;;;23.00;9.00;;;;;;5031348;28;20908;-76
2022/07/27 11:41:26;;;;;;;8.45;2.50;;;23.60;7.50;;;;;;5030944;28;20406;-76
2022/07/27 11:43:52;;;;;;;4.32;2.20;;;23.90;7.10;;;;;;5032037;28;20870;-77
2022/07/27 11:46:22;;;;;;;3.75;1.60;;;24.10;7.20;;;;;;5031337;28;20896;-76
2022/07/27 11:48:54;;;;;;;5.30;2.00;;;24.10;6.40;;;;;;5031757;28;20384;-76
2022/07/27 11:51:20;;;;;;;4.07;1.48;;;23.90;7.10;;;;;;5030906;28;20402;-76
2022/07/27 11:53:45;;;;;;;5.13;1.80;;;23.10;7.90;;;;;;5030852;28;20391;-76
2022/07/27 11:56:11;;;;;;;4.47;1.60;;;23.00;8.00;;;;;;5030869;28;20375;-76
2022/07/27 11:58:57;;;;;;;3.17;1.25;;;23.20;8.10;;;;;;5030102;28;20460;-76
2022/07/27 12:01:34;;;;;;;9.63;1.75;;;23.50;7.50;;;;;;5030441;28;20458;-76
2022/07/27 12:04:09;;;;;;;3.47;1.88;;;23.60;7.60;;;;;;5030863;28;20725;-76
2022/07/27 12:06:35;;;;;;;4.68;2.25;;;23.20;6.50;;;;;;5030660;28;20753;-76
2022/07/27 12:09:03;;;;;;;8.63;2.00;;;23.20;6.70;;;;;;5030697;28;20379;-76
2022/07/27 12:11:45;;;;;;;4.50;1.90;;;23.30;6.40;;;;;;5030550;28;20415;-76
2022/07/27 12:14:12;;;;;;;10.45;2.15;;;22.80;7.30;;;;;;5030883;28;20805;-77
2022/07/27 12:16:38;;;;;;;5.22;1.80;;;22.80;7.30;;;;;;5030887;28;20401;-76
2022/07/27 12:19:03;;;;;;;2.50;1.47;;;22.90;7.60;;;;;;5031685;28;20391;-76
2022/07/27 12:21:29;;;;;;;2.10;1.70;;;23.20;6.30;;;;;;5032175;28;20393;-76
2022/07/27 12:23:54;;;;;;;2.75;1.30;;;23.80;5.80;;;;;;5031811;28;20395;-76
2022/07/27 12:26:23;;;;;;;3.63;1.40;;;23.80;5.00;;;;;;5034647;28;20810;-76
2022/07/27 12:29:24;;;;;;;1.80;1.20;;;24.40;5.20;;;;;;5031860;28;20379;-76
2022/07/27 12:31:50;;;;;;;3.80;1.40;;;24.20;4.80;;;;;;4936725;29;20801;-76
2022/07/27 12:34:15;;;;;;;5.43;1.57;;;23.40;5.30;;;;;;5015788;28;20383;-76
2022/07/27 12:36:41;;;;;;;2.93;1.40;;;22.90;6.20;;;;;;5035181;28;20402;-76
2022/07/27 12:39:07;;;;;;;2.10;1.40;;;22.70;6.70;;;;;;5035813;28;20449;-76
2022/07/27 12:41:38;;;;;;;2.03;1.67;;;22.40;6.80;;;;;;5044404;28;20383;-75
2022/07/27 12:44:11;;;;;;;3.50;1.50;;;22.30;6.60;;;;;;5042436;28;20414;-75
2022/07/27 12:47:00;;;;;;;3.65;2.20;;;22.40;6.40;;;;;;5045716;28;20502;-76
2022/07/27 12:49:36;;;;;;;5.95;1.80;;;22.80;5.90;;;;;;5032845;28;20856;-75
2022/07/27 12:52:09;;;;;;;2.60;1.80;;;23.30;4.40;;;;;;5032745;28;20376;-76
2022/07/27 12:54:35;;;;;;;1.80;1.70;;;23.80;4.40;;;;;;5031562;28;20904;-76
2022/07/27 12:57:02;;;;;;;4.63;2.40;;;24.40;4.30;;;;;;5032651;28;20494;-76